Site contains unofficial IBTrACS data. Visit the IBTrACS Website to access archived data.

1891 Hurricane NOT_NAMED (1891266N14330)


IBTrACS version v04r00. Visit IBTrACS website for data access.
Please direct all questions to the IBTrACS Q and A forum

Storm track - Intensity - Wind Radii - Intensity Data - Source Data - All data

Summary Information

Storm ID 1891266N14330
Start Sep 23 00Z
Landfall Oct 6 06Z, Oct 6 15Z
Max Intensity 90 kt (Oct 2 12Z), 971 mb (Oct 5 12Z)
End Oct 8 18Z
ATCF IDs ,AL061891
Track status Best track data.

Storm track plot

Map of storm track

Intensity plots

Map of storm track

Radial wind information

No radial wind information for this storm


Position and Intensity Table

BASIN ISO_TIME_________ NATURE LAT LON WMO WIND USA WIND MLC WIND MLC PRES
degrees north degrees east kts kts kts mb
NA 1891-09-23 00:00:00 TS 14.20 -30.50 30
NA 03:00:00 TS 14.31 -31.25 30
NA 06:00:00 TS 14.40 -32.00 30
NA 09:00:00 TS 14.45 -32.75 30
NA 12:00:00 TS 14.50 -33.50 30
NA 15:00:00 TS 14.60 -34.26 30
NA 18:00:00 TS 14.70 -35.00 30
NA 21:00:00 TS 14.74 -35.71 32
NA 1891-09-24 00:00:00 TS 14.80 -36.40 35
NA 03:00:00 TS 14.93 -37.10 37
NA 06:00:00 TS 15.10 -37.80 40
NA 09:00:00 TS 15.25 -38.50 45
NA 12:00:00 TS 15.40 -39.20 50
NA 15:00:00 TS 15.55 -39.90 55
NA 18:00:00 TS 15.70 -40.60 60
NA 21:00:00 TS 15.85 -41.31 60
NA 1891-09-25 00:00:00 TS 16.00 -42.00 60
NA 03:00:00 TS 16.16 -42.67 65
NA 06:00:00 TS 16.30 -43.30 70
NA 09:00:00 TS 16.40 -43.90 72
NA 12:00:00 TS 16.50 -44.50 75
NA 15:00:00 TS 16.65 -45.15 75
NA 18:00:00 TS 16.80 -45.80 75
NA 21:00:00 TS 16.88 -46.42 75
NA 1891-09-26 00:00:00 TS 17.00 -47.00 75
NA 03:00:00 TS 17.23 -47.52 75
NA 06:00:00 TS 17.50 -48.00 75
NA 09:00:00 TS 17.70 -48.45 75
NA 12:00:00 TS 17.90 -48.90 75
NA 15:00:00 TS 18.15 -49.40 75
NA 18:00:00 TS 18.40 -49.90 75
NA 21:00:00 TS 18.61 -50.37 75
NA 1891-09-27 00:00:00 TS 18.80 -50.80 75
NA 03:00:00 TS 18.96 -51.22 75
NA 06:00:00 TS 19.10 -51.60 75
NA 09:00:00 TS 19.25 -51.96 75
NA 12:00:00 TS 19.40 -52.30 75
NA 15:00:00 TS 19.55 -52.64 75
NA 18:00:00 TS 19.70 -53.00 75
NA 21:00:00 TS 19.83 -53.40 75
NA 1891-09-28 00:00:00 TS 20.00 -53.80 75
NA 03:00:00 TS 20.28 -54.16 75
NA 06:00:00 TS 20.60 -54.50 75
NA 09:00:00 TS 20.85 -54.85 75
NA 12:00:00 TS 21.10 -55.20 75
NA 15:00:00 TS 21.40 -55.56 75
NA 18:00:00 TS 21.70 -55.90 75
NA 21:00:00 TS 21.94 -56.22 75
NA 1891-09-29 00:00:00 TS 22.20 -56.50 75
NA 03:00:00 TS 22.53 -56.72 75
NA 06:00:00 TS 22.17 -56.13 35 35 75
NA 09:00:00 TS 22.10 -55.87 35 75
NA 12:00:00 TS 22.16 -55.74 35 35 75
NA 15:00:00 TS 22.30 -55.72 37 77
NA 18:00:00 TS 22.60 -55.90 40 40 80
NA 21:00:00 TS 22.87 -56.08 42 80
NA 1891-09-30 00:00:00 TS 23.13 -56.27 45 45 80
NA 03:00:00 TS 23.42 -56.45 45 80
NA 06:00:00 TS 23.70 -56.63 45 45 80
NA 09:00:00 TS 23.95 -56.80 47 80
NA 12:00:00 TS 24.20 -56.97 50 50 80
NA 15:00:00 TS 24.44 -57.15 50 80
NA 18:00:00 TS 24.70 -57.33 50 50 80
NA 21:00:00 TS 24.99 -57.52 52 80
NA 1891-10-01 00:00:00 TS 25.27 -57.73 55 55 80
NA 03:00:00 TS 25.50 -57.97 57 80
NA 06:00:00 TS 25.73 -58.23 60 60 80
NA 09:00:00 TS 25.99 -58.49 60 80
NA 12:00:00 TS 26.27 -58.77 60 60 80
NA 15:00:00 TS 26.56 -59.09 62 80
NA 18:00:00 TS 26.83 -59.43 65 65 80
NA 21:00:00 TS 27.07 -59.74 67 82
NA 1891-10-02 00:00:00 TS 27.30 -60.03 70 70 85
NA 03:00:00 TS 27.53 -60.34 72 85
NA 06:00:00 TS 27.77 -60.67 75 75 85
NA 09:00:00 TS 28.03 -61.03 77 87
NA 12:00:00 TS 28.30 -61.40 80 80 90
NA 15:00:00 TS 28.57 -61.73 80 90
NA 18:00:00 TS 28.83 -62.03 80 80 90
NA 21:00:00 TS 29.10 -62.33 82 90
NA 1891-10-03 00:00:00 TS 29.37 -62.63 85 85 90
NA 03:00:00 TS 29.62 -62.95 85 90
NA 06:00:00 TS 29.87 -63.27 85 85 90
NA 09:00:00 TS 30.12 -63.56 85 90
NA 12:00:00 TS 30.40 -63.83 85 85 90
NA 15:00:00 TS 30.73 -64.11 85 90
NA 18:00:00 TS 31.10 -64.40 85 85 90
NA 21:00:00 TS 31.48 -64.74 85 87
NA 1891-10-04 00:00:00 TS 31.90 -65.10 85 85 85
NA 03:00:00 TS 32.36 -65.43 85 85
NA 06:00:00 TS 32.83 -65.77 85 85 85
NA 09:00:00 TS 33.24 -66.13 85 85
NA 12:00:00 TS 33.67 -66.50 85 85 85
NA 15:00:00 TS 34.19 -66.86 85 85
NA 18:00:00 TS 34.70 -67.20 85 85 85
NA 21:00:00 TS 35.08 -67.48 85 85
NA 1891-10-05 00:00:00 TS 35.47 -67.73 85 85 85
NA 03:00:00 TS 35.98 -68.06 85 85
NA 06:00:00 TS 36.57 -68.33 85 85 85
NA 09:00:00 TS 37.12 -68.51 80 85
NA 12:00:00 TS 37.83 -68.47 75 75 85 971
NA 15:00:00 TS 38.79 -68.23 70 80
NA 18:00:00 TS 39.93 -67.60 65 65 75
NA 21:00:00 TS 41.09 -66.49 60 70
NA 1891-10-06 00:00:00 MX 42.37 -65.00 55 55 65
NA 03:00:00 MX 43.87 -63.38 52 62
NA 06:00:00 ET 45.30 -61.60 50 50 60
NA 09:00:00 ET 46.38 -59.77 50 60
NA 12:00:00 ET 47.20 -58.00 50 50 60
NA 15:00:00 ET 47.85 -56.41 50 60
NA 18:00:00 ET 48.40 -54.90 50 50 60
NA 21:00:00 ET 49.01 -53.31 50 60
NA 1891-10-07 00:00:00 ET 49.60 -51.70 50 50 60
NA 03:00:00 ET 50.11 -50.06 50 60
NA 06:00:00 ET 50.60 -48.40 50 50 60
NA 09:00:00 ET 51.10 -46.72 50 60
NA 12:00:00 ET 51.60 -45.00 50 50 60
NA 15:00:00 ET 52.05 -43.25 50 55
NA 18:00:00 ET 52.50 -41.40 50 50 50
NA 21:00:00 ET 52.96 -39.39 50 50
NA 1891-10-08 00:00:00 ET 53.40 -37.30 50 50 50
NA 03:00:00 ET 53.79 -35.16 50 50
NA 06:00:00 ET 54.20 -33.10 50 50 50
NA 09:00:00 ET 54.63 -31.27 50 50
NA 12:00:00 ET 55.20 -29.50 50 50 50
NA 15:00:00 ET 55.95 -27.58 47 47
NA 18:00:00 ET 56.80 -25.50 45 45 45

Source Information

Agency Information
USA hurdat2-1851-2019-042820.txt:Line=6942:UNNAMED
TOKYO
CMA
HKO
NEWDELHI
REUNION
BOM
NADI
WELLINGTON
DS824
TD9636
TD9635
NEUMANN
MLC

All available IBTrACS Data

SEASON BASIN SUBBASIN ISO_TIME_________ NATURE LAT LON WMO WIND WMO AGENCY DIST2LAND LANDFALL IFLAG USA AGENCY USA ATCF_ID USA LAT USA LON USA STATUS USA WIND USA SSHS MLC LAT MLC LON MLC CLASS MLC WIND MLC PRES STORM SPEED STORM DIR
Year degrees north degrees east kts km km degrees north degrees east kts 1 degrees north degrees east kts mb kts degrees
1891 NA NA 1891-09-23 00:00:00 TS 14.20 -30.50 1401 1401 _____________O -1 14.20 -30.50 TD 30 15 279
1891 NA NA 03:00:00 TS 14.31 -31.25 1476 1476 _____________P -1 14.31 -31.25 TD 30 15 278
1891 NA NA 06:00:00 TS 14.40 -32.00 1561 1561 _____________O -1 14.40 -32.00 TD 30 15 275
1891 NA NA 09:00:00 TS 14.45 -32.75 1647 1646 _____________P -1 14.45 -32.75 TD 30 15 274
1891 NA NA 12:00:00 TS 14.50 -33.50 1722 1722 _____________O -1 14.50 -33.50 TD 30 15 276
1891 NA NA 15:00:00 TS 14.60 -34.26 1807 1807 _____________P -1 14.60 -34.26 TD 30 15 278
1891 NA NA 18:00:00 TS 14.70 -35.00 1882 1882 _____________O -1 14.70 -35.00 TD 30 14 276
1891 NA NA 21:00:00 TS 14.74 -35.71 1957 1957 _____________P -1 14.74 -35.71 TD 32 14 274
1891 NA NA 1891-09-24 00:00:00 TS 14.80 -36.40 2012 1956 _____________O -1 14.80 -36.40 TS 35 14 278
1891 NA NA 03:00:00 TS 14.93 -37.10 1956 1910 _____________P -1 14.93 -37.10 TS 37 14 283
1891 NA NA 06:00:00 TS 15.10 -37.80 1910 1858 _____________O -1 15.10 -37.80 TS 40 14 283
1891 NA NA 09:00:00 TS 15.25 -38.50 1858 1816 _____________P -1 15.25 -38.50 TS 45 14 283
1891 NA NA 12:00:00 TS 15.40 -39.20 1816 1769 _____________O -1 15.40 -39.20 TS 50 14 283
1891 NA NA 15:00:00 TS 15.55 -39.90 1769 1732 _____________P -1 15.55 -39.90 TS 55 14 283
1891 NA NA 18:00:00 TS 15.70 -40.60 1732 1689 _____________O -1 15.70 -40.60 TS 60 14 282
1891 NA NA 21:00:00 TS 15.85 -41.31 1689 1658 _____________P -1 15.85 -41.31 TS 60 14 283
1891 NA NA 1891-09-25 00:00:00 TS 16.00 -42.00 1658 1628 _____________O -1 16.00 -42.00 TS 60 13 283
1891 NA NA 03:00:00 TS 16.16 -42.67 1630 1603 _____________P -1 16.16 -42.67 TS 65 13 284
1891 NA NA 06:00:00 TS 16.30 -43.30 1603 1573 _____________O -1 16.30 -43.30 HU 70 12 282
1891 NA NA 09:00:00 TS 16.40 -43.90 1573 1543 _____________P -1 16.40 -43.90 HU 72 12 280
1891 NA NA 12:00:00 TS 16.50 -44.50 1543 1516 _____________O -1 16.50 -44.50 HU 75 12 282
1891 NA NA 15:00:00 TS 16.65 -45.15 1516 1495 _____________P -1 16.65 -45.15 HU 75 13 284
1891 NA NA 18:00:00 TS 16.80 -45.80 1495 1474 _____________O -1 16.80 -45.80 HU 75 12 281
1891 NA NA 21:00:00 TS 16.88 -46.42 1474 1454 _____________P -1 16.88 -46.42 HU 75 12 280
1891 NA NA 1891-09-26 00:00:00 TS 17.00 -47.00 1454 1446 _____________O -1 17.00 -47.00 HU 75 11 288
1891 NA NA 03:00:00 TS 17.23 -47.52 1452 1448 _____________P -1 17.23 -47.52 HU 75 11 298
1891 NA NA 06:00:00 TS 17.50 -48.00 1462 1458 _____________O -1 17.50 -48.00 HU 75 10 298
1891 NA NA 09:00:00 TS 17.70 -48.45 1459 1456 _____________P -1 17.70 -48.45 HU 75 9 295
1891 NA NA 12:00:00 TS 17.90 -48.90 1461 1457 _____________O -1 17.90 -48.90 HU 75 10 296
1891 NA NA 15:00:00 TS 18.15 -49.40 1462 1462 _____________P -1 18.15 -49.40 HU 75 11 298
1891 NA NA 18:00:00 TS 18.40 -49.90 1472 1451 _____________O -1 18.40 -49.90 HU 75 10 297
1891 NA NA 21:00:00 TS 18.61 -50.37 1442 1422 _____________P -1 18.61 -50.37 HU 75 9 295
1891 NA NA 1891-09-27 00:00:00 TS 18.80 -50.80 1422 1396 _____________O -1 18.80 -50.80 HU 75 9 293
1891 NA NA 03:00:00 TS 18.96 -51.22 1403 1379 _____________P -1 18.96 -51.22 HU 75 8 292
1891 NA NA 06:00:00 TS 19.10 -51.60 1379 1363 _____________O -1 19.10 -51.60 HU 75 8 293
1891 NA NA 09:00:00 TS 19.25 -51.96 1356 1348 _____________P -1 19.25 -51.96 HU 75 7 294
1891 NA NA 12:00:00 TS 19.40 -52.30 1348 1334 _____________O -1 19.40 -52.30 HU 75 7 295
1891 NA NA 15:00:00 TS 19.55 -52.64 1334 1321 _____________P -1 19.55 -52.64 HU 75 7 294
1891 NA NA 18:00:00 TS 19.70 -53.00 1323 1291 _____________O -1 19.70 -53.00 HU 75 8 291
1891 NA NA 21:00:00 TS 19.83 -53.40 1291 1251 _____________P -1 19.83 -53.40 HU 75 8 292
1891 NA NA 1891-09-28 00:00:00 TS 20.00 -53.80 1251 1223 _____________O -1 20.00 -53.80 HU 75 8 303
1891 NA NA 03:00:00 TS 20.28 -54.16 1214 1188 _____________P -1 20.28 -54.16 HU 75 9 312
1891 NA NA 06:00:00 TS 20.60 -54.50 1188 1162 _____________O -1 20.60 -54.50 HU 75 9 311
1891 NA NA 09:00:00 TS 20.85 -54.85 1152 1129 _____________P -1 20.85 -54.85 HU 75 8 307
1891 NA NA 12:00:00 TS 21.10 -55.20 1129 1104 _____________O -1 21.10 -55.20 HU 75 9 310
1891 NA NA 15:00:00 TS 21.40 -55.56 1097 1077 _____________P -1 21.40 -55.56 HU 75 9 313
1891 NA NA 18:00:00 TS 21.70 -55.90 1077 1056 _____________O -1 21.70 -55.90 HU 75 8 311
1891 NA NA 21:00:00 TS 21.94 -56.22 1056 1039 _____________P -1 21.94 -56.22 HU 75 8 312
1891 NA NA 1891-09-29 00:00:00 TS 22.20 -56.50 1039 1029 _____________O -1 22.20 -56.50 HU 75 8 322
1891 NA NA 03:00:00 TS 22.53 -56.72 1033 1033 _____________P -1 22.53 -56.72 HU 75 3 96
1891 NA NA 06:00:00 TS 22.17 -56.13 35 hurdat_atl 1077 1073 O____________O hurdat_atl AL061891 20.70 -54.60 TS 35 0 22.90 -56.90 HU 75 9 119
1891 NA NA 09:00:00 TS 22.10 -55.87 1092 1092 P____________P AL061891 20.95 -54.63 TS 35 0 23.24 -57.10 HU 75 4 91
1891 NA NA 12:00:00 TS 22.16 -55.74 35 hurdat_atl 1116 1116 O____________O hurdat_atl AL061891 21.20 -54.70 TS 35 0 23.60 -57.30 HU 75 2 33
1891 NA NA 15:00:00 TS 22.30 -55.72 1119 1109 P____________P AL061891 21.45 -54.83 TS 37 0 24.01 -57.51 HU 77 5 341
1891 NA NA 18:00:00 TS 22.60 -55.90 40 hurdat_atl 1113 1103 O____________O hurdat_atl AL061891 21.70 -55.00 TS 40 0 24.40 -57.70 HU 80 7 330
1891 NA NA 21:00:00 TS 22.87 -56.08 1108 1100 P____________P AL061891 21.94 -55.19 TS 42 0 24.72 -57.86 HU 80 6 328
1891 NA NA 1891-09-30 00:00:00 TS 23.13 -56.27 45 hurdat_atl 1100 1100 O____________O hurdat_atl AL061891 22.20 -55.40 TS 45 0 25.00 -58.00 HU 80 7 328
1891 NA NA 03:00:00 TS 23.42 -56.45 1097 1097 P____________P AL061891 22.50 -55.60 TS 45 0 25.26 -58.16 HU 80 7 329
1891 NA NA 06:00:00 TS 23.70 -56.63 45 hurdat_atl 1105 1096 O____________O hurdat_atl AL061891 22.80 -55.80 TS 45 0 25.50 -58.30 HU 80 6 329
1891 NA NA 09:00:00 TS 23.95 -56.80 1105 1097 P____________P AL061891 23.06 -56.00 TS 47 0 25.75 -58.40 HU 80 6 329
1891 NA NA 12:00:00 TS 24.20 -56.97 50 hurdat_atl 1101 1099 O____________O hurdat_atl AL061891 23.30 -56.20 TS 50 0 26.00 -58.50 HU 80 6 327
1891 NA NA 15:00:00 TS 24.44 -57.15 1105 1102 P____________P AL061891 23.54 -56.39 TS 50 0 26.25 -58.65 HU 80 6 326
1891 NA NA 18:00:00 TS 24.70 -57.33 50 hurdat_atl 1109 1101 O____________O hurdat_atl AL061891 23.80 -56.60 TS 50 0 26.50 -58.80 HU 80 6 328
1891 NA NA 21:00:00 TS 24.99 -57.52 1114 1107 P____________P AL061891 24.10 -56.84 TS 52 0 26.76 -58.89 HU 80 7 327
1891 NA NA 1891-10-01 00:00:00 TS 25.27 -57.73 55 hurdat_atl 1121 1114 O____________O hurdat_atl AL061891 24.40 -57.10 TS 55 0 27.00 -59.00 HU 80 7 322
1891 NA NA 03:00:00 TS 25.50 -57.97 1114 1114 P____________P AL061891 24.65 -57.34 TS 57 0 27.21 -59.23 HU 80 7 316
1891 NA NA 06:00:00 TS 25.73 -58.23 60 hurdat_atl 1116 1116 O____________O hurdat_atl AL061891 24.90 -57.60 TS 60 0 27.40 -59.50 HU 80 7 317
1891 NA NA 09:00:00 TS 25.99 -58.49 1120 1120 P____________P AL061891 25.19 -57.88 TS 60 0 27.59 -59.71 HU 80 7 318
1891 NA NA 12:00:00 TS 26.27 -58.77 60 hurdat_atl 1125 1119 O____________O hurdat_atl AL061891 25.50 -58.20 TS 60 0 27.80 -59.90 HU 80 8 316
1891 NA NA 15:00:00 TS 26.56 -59.09 1133 1127 P____________P AL061891 25.81 -58.59 TS 62 0 28.05 -60.10 HU 80 8 314
1891 NA NA 18:00:00 TS 26.83 -59.43 65 hurdat_atl 1133 1128 O____________O hurdat_atl AL061891 26.10 -59.00 HU 65 1 28.30 -60.30 HU 80 8 312
1891 NA NA 21:00:00 TS 27.07 -59.74 1144 1138 P____________P AL061891 26.36 -59.36 HU 67 1 28.51 -60.49 HU 82 7 311
1891 NA NA 1891-10-02 00:00:00 TS 27.30 -60.03 70 hurdat_atl 1147 1142 O____________O hurdat_atl AL061891 26.60 -59.70 HU 70 1 28.70 -60.70 HU 85 7 310
1891 NA NA 03:00:00 TS 27.53 -60.34 1152 1147 P____________P AL061891 26.84 -60.04 HU 72 1 28.90 -60.95 HU 85 7 310
1891 NA NA 06:00:00 TS 27.77 -60.67 75 hurdat_atl 1163 1159 O____________O hurdat_atl AL061891 27.10 -60.40 HU 75 1 29.10 -61.20 HU 85 8 309
1891 NA NA 09:00:00 TS 28.03 -61.03 1171 1167 P____________P AL061891 27.39 -60.85 HU 77 1 29.30 -61.40 HU 87 8 309
1891 NA NA 12:00:00 TS 28.30 -61.40 80 hurdat_atl 1186 1182 O____________O hurdat_atl AL061891 27.70 -61.30 HU 80 1 29.50 -61.60 HU 90 8 311
1891 NA NA 15:00:00 TS 28.57 -61.73 1207 1203 P____________P AL061891 28.00 -61.67 HU 80 1 29.70 -61.85 HU 90 8 314
1891 NA NA 18:00:00 TS 28.83 -62.03 80 hurdat_atl 1218 1215 O____________O hurdat_atl AL061891 28.30 -62.00 HU 80 1 29.90 -62.10 HU 90 8 315
1891 NA NA 21:00:00 TS 29.10 -62.33 1241 1239 P____________P AL061891 28.61 -62.35 HU 82 1 30.09 -62.30 HU 90 7 315
1891 NA NA 1891-10-03 00:00:00 TS 29.37 -62.63 85 hurdat_atl 1266 1263 O____________O hurdat_atl AL061891 28.90 -62.70 HU 85 2 30.30 -62.50 HU 90 7 314
1891 NA NA 03:00:00 TS 29.62 -62.95 1279 1279 P____________P AL061891 29.15 -63.06 HU 85 2 30.55 -62.74 HU 90 7 312
1891 NA NA 06:00:00 TS 29.87 -63.27 85 hurdat_atl 1305 1284 O____________O hurdat_atl AL061891 29.40 -63.40 HU 85 2 30.80 -63.00 HU 90 7 314
1891 NA NA 09:00:00 TS 30.12 -63.56 1276 1242 P____________P AL061891 29.68 -63.71 HU 85 2 31.00 -63.25 HU 90 7 317
1891 NA NA 12:00:00 TS 30.40 -63.83 85 hurdat_atl 1242 1200 O____________O hurdat_atl AL061891 30.00 -64.00 HU 85 2 31.20 -63.50 HU 90 8 322
1891 NA NA 15:00:00 TS 30.73 -64.11 1200 1152 P____________P AL061891 30.37 -64.29 HU 85 2 31.45 -63.75 HU 90 9 325
1891 NA NA 18:00:00 TS 31.10 -64.40 85 hurdat_atl 1152 1105 O____________O hurdat_atl AL061891 30.80 -64.60 HU 85 2 31.70 -64.00 HU 90 9 324
1891 NA NA 21:00:00 TS 31.48 -64.74 1105 1051 P____________P AL061891 31.29 -65.00 HU 85 2 31.86 -64.23 HU 87 10 323
1891 NA NA 1891-10-04 00:00:00 TS 31.90 -65.10 85 hurdat_atl 1051 1006 O____________O hurdat_atl AL061891 31.80 -65.40 HU 85 2 32.10 -64.50 HU 85 11 326
1891 NA NA 03:00:00 TS 32.36 -65.43 1001 957 P____________P AL061891 32.26 -65.71 HU 85 2 32.56 -64.88 HU 85 11 329
1891 NA NA 06:00:00 TS 32.83 -65.77 85 hurdat_atl 949 906 O____________O hurdat_atl AL061891 32.70 -66.00 HU 85 2 33.10 -65.30 HU 85 11 326
1891 NA NA 09:00:00 TS 33.24 -66.13 906 856 P____________P AL061891 33.08 -66.34 HU 85 2 33.56 -65.72 HU 85 10 324
1891 NA NA 12:00:00 TS 33.67 -66.50 85 hurdat_atl 852 810 O____________O hurdat_atl AL061891 33.50 -66.70 HU 85 2 34.00 -66.10 HU 85 11 327
1891 NA NA 15:00:00 TS 34.19 -66.86 801 761 P____________P AL061891 34.06 -67.11 HU 85 2 34.45 -66.38 HU 85 12 331
1891 NA NA 18:00:00 TS 34.70 -67.20 85 hurdat_atl 761 726 O____________O hurdat_atl AL061891 34.60 -67.50 HU 85 2 34.90 -66.60 HU 85 10 331
1891 NA NA 21:00:00 TS 35.08 -67.48 726 704 P____________P AL061891 34.94 -67.82 HU 85 2 35.35 -66.79 HU 85 9 330
1891 NA NA 1891-10-05 00:00:00 TS 35.47 -67.73 85 hurdat_atl 703 665 O____________O hurdat_atl AL061891 35.30 -68.10 HU 85 2 35.80 -67.00 HU 85 10 332
1891 NA NA 03:00:00 TS 35.98 -68.06 652 593 P____________P AL061891 35.84 -68.44 HU 85 2 36.26 -67.31 HU 85 12 336
1891 NA NA 06:00:00 TS 36.57 -68.33 85 hurdat_atl 583 524 O____________O hurdat_atl AL061891 36.50 -68.70 HU 85 2 36.70 -67.60 HU 85 12 343
1891 NA NA 09:00:00 TS 37.12 -68.51 524 452 P____________P AL061891 37.20 -68.87 HU 80 1 36.98 -67.79 HU 85 13 355
1891 NA NA 12:00:00 TS 37.83 -68.47 75 hurdat_atl 452 363 O____________O hurdat_atl AL061891 38.00 -68.80 HU 75 1 37.50 -67.80 HU 85 971 17 7
1891 NA NA 15:00:00 TS 38.79 -68.23 356 283 P____________P AL061891 38.87 -68.51 HU 70 1 38.65 -67.68 HU 80 22 18
1891 NA NA 18:00:00 TS 39.93 -67.60 65 hurdat_atl 283 274 O____________O hurdat_atl AL061891 39.90 -67.80 HU 65 1 40.00 -67.20 HU 75 27 30
1891 NA NA 21:00:00 TS 41.09 -66.49 274 134 P____________P AL061891 41.13 -66.58 HU 60 0 41.00 -66.30 HU 70 31 39
1891 NA NA 1891-10-06 00:00:00 MX 42.37 -65.00 55 hurdat_atl 124 67 O____________O hurdat_atl AL061891 42.50 -65.00 EX 55 -4 42.10 -65.00 HU 65 36 39
1891 NA NA 03:00:00 MX 43.87 -63.38 57 0 P____________P AL061891 43.95 -63.36 EX 52 -4 43.72 -63.42 HU 62 38 40
1891 NA NA 06:00:00 ET 45.30 -61.60 50 hurdat_atl 0 0 O____________O hurdat_atl AL061891 45.30 -61.60 EX 50 -4 45.30 -61.60 EX 60 36 45
1891 NA NA 09:00:00 ET 46.38 -59.77 22 22 P____________P AL061891 46.37 -59.77 EX 50 -4 46.40 -59.77 EX 60 31 53
1891 NA NA 12:00:00 ET 47.20 -58.00 50 hurdat_atl 49 0 O____________O hurdat_atl AL061891 47.20 -58.00 EX 50 -4 47.20 -58.00 EX 60 27 57
1891 NA NA 15:00:00 ET 47.85 -56.41 0 0 P____________P AL061891 47.85 -56.41 EX 50 -4 47.85 -56.41 EX 60 24 60
1891 NA NA 18:00:00 ET 48.40 -54.90 50 hurdat_atl 0 0 O____________O hurdat_atl AL061891 48.40 -54.90 EX 50 -4 48.40 -54.90 EX 60 24 60
1891 NA NA 21:00:00 ET 49.01 -53.31 18 18 P____________P AL061891 49.01 -53.31 EX 50 -4 49.01 -53.31 EX 60 24 60
1891 NA NA 1891-10-07 00:00:00 ET 49.60 -51.70 50 hurdat_atl 133 133 O____________O hurdat_atl AL061891 49.60 -51.70 EX 50 -4 49.60 -51.70 EX 60 24 62
1891 NA NA 03:00:00 ET 50.11 -50.06 259 259 P____________P AL061891 50.11 -50.06 EX 50 -4 50.11 -50.06 EX 60 23 65
1891 NA NA 06:00:00 ET 50.60 -48.40 50 hurdat_atl 390 390 O____________O hurdat_atl AL061891 50.60 -48.40 EX 50 -4 50.60 -48.40 EX 60 23 65
1891 NA NA 09:00:00 ET 51.10 -46.72 521 521 P____________P AL061891 51.10 -46.72 EX 50 -4 51.10 -46.72 EX 60 23 65
1891 NA NA 12:00:00 ET 51.60 -45.00 50 hurdat_atl 650 650 O____________O hurdat_atl AL061891 51.60 -45.00 EX 50 -4 51.60 -45.00 EX 60 23 66
1891 NA NA 15:00:00 ET 52.05 -43.25 784 784 P____________P AL061891 52.05 -43.25 EX 50 -4 52.05 -43.25 EX 55 24 68
1891 NA NA 18:00:00 ET 52.50 -41.40 50 hurdat_atl 848 822 O____________O hurdat_atl AL061891 52.50 -41.40 EX 50 -4 52.50 -41.40 EX 50 25 69
1891 NA NA 21:00:00 ET 52.96 -39.39 817 813 P____________P AL061891 52.96 -39.39 EX 50 -4 52.96 -39.39 EX 50 26 70
1891 NA NA 1891-10-08 00:00:00 ET 53.40 -37.30 50 hurdat_atl 820 820 O____________O hurdat_atl AL061891 53.40 -37.30 EX 50 -4 53.40 -37.30 EX 50 26 72
1891 NA NA 03:00:00 ET 53.79 -35.16 843 843 P____________P AL061891 53.79 -35.16 EX 50 -4 53.79 -35.16 EX 50 26 72
1891 NA NA 06:00:00 ET 54.20 -33.10 50 hurdat_atl 884 884 O____________O hurdat_atl AL061891 54.20 -33.10 EX 50 -4 54.20 -33.10 EX 50 24 70
1891 NA NA 09:00:00 ET 54.63 -31.27 928 924 P____________P AL061891 54.63 -31.27 EX 50 -4 54.63 -31.27 EX 50 23 64
1891 NA NA 12:00:00 ET 55.20 -29.50 50 hurdat_atl 967 916 O____________O hurdat_atl AL061891 55.20 -29.50 EX 50 -4 55.20 -29.50 EX 50 25 58
1891 NA NA 15:00:00 ET 55.95 -27.58 904 790 P____________P AL061891 55.95 -27.58 EX 47 -4 55.95 -27.58 EX 47 27 54
1891 NA NA 18:00:00 ET 56.80 -25.50 45 hurdat_atl 789 O____________O hurdat_atl AL061891 56.80 -25.50 EX 45 -4 56.80 -25.50 EX 45 28 53